Time;durP1;ratioP1;P1;durP2;ratioP2;P2;SDS_P1;SDS_P2;PMS_P1;PMS_P2;Temp;Humidity;BMP_temperature;BMP_pressure;BME280_temperature;BME280_humidity;BME280_pressure;Samples;Min_cycle;Max_cycle;Signal;HPM_P1;HPM_P2
2022/01/26 07:59:21;;;;;;;119.22;62.40;;;;;;;2.80;85.39;103088.13;5280771;28;20387;-81
2022/01/26 08:01:53;;;;;;;127.47;62.33;;;;;;;2.76;85.27;103100.47;5270832;28;20360;-82
2022/01/26 08:04:24;;;;;;;115.53;59.08;;;;;;;2.86;85.63;103120.25;5259822;28;20100;-81
2022/01/26 08:06:55;;;;;;;119.00;62.28;;;;;;;2.77;85.18;103127.69;5270360;28;20064;-82
2022/01/26 08:09:27;;;;;;;111.93;60.38;;;;;;;2.85;86.08;103129.53;5280766;28;20388;-81
2022/01/26 08:11:58;;;;;;;112.32;59.95;;;;;;;2.82;85.92;103127.16;5280057;28;20460;-80
2022/01/26 08:14:29;;;;;;;108.95;57.83;;;;;;;2.91;86.14;103116.97;5280245;28;20494;-80
2022/01/26 08:17:02;;;;;;;118.18;58.72;;;;;;;2.88;85.65;103120.09;5280161;28;20448;-81
2022/01/26 08:19:35;;;;;;;113.20;60.25;;;;;;;2.87;85.65;103127.47;5279635;28;20021;-82
2022/01/26 08:22:07;;;;;;;113.18;57.65;;;;;;;2.87;86.30;103123.88;5280889;28;20112;-82
2022/01/26 08:24:39;;;;;;;106.47;56.90;;;;;;;2.83;86.24;103126.13;5279891;28;20027;-82
2022/01/26 08:27:13;;;;;;;103.38;56.08;;;;;;;2.85;86.96;103135.00;5279772;28;20051;-83
2022/01/26 08:29:49;;;;;;;109.75;55.33;;;;;;;2.89;87.07;103121.78;5280370;28;20021;-82
2022/01/26 08:32:20;;;;;;;101.28;54.45;;;;;;;3.04;86.85;103115.34;5280754;28;20357;-83
2022/01/26 08:34:52;;;;;;;102.80;52.53;;;;;;;3.10;86.69;103112.91;5279737;28;20092;-83
2022/01/26 08:37:23;;;;;;;105.07;56.22;;;;;;;3.10;86.13;103110.16;5280099;28;20025;-83
2022/01/26 08:39:54;;;;;;;110.43;58.17;;;;;;;3.16;87.00;103115.75;5279840;28;20029;-83
2022/01/26 08:42:26;;;;;;;101.65;55.40;;;;;;;3.22;86.60;103123.25;5279880;28;20368;-84
2022/01/26 08:44:57;;;;;;;107.50;57.78;;;;;;;3.34;86.60;103118.16;5280349;28;20460;-84
2022/01/26 08:47:28;;;;;;;101.43;54.05;;;;;;;3.28;85.47;103116.16;5279151;28;20103;-83
2022/01/26 08:50:00;;;;;;;103.65;54.53;;;;;;;3.18;86.00;103126.53;5274980;28;20021;-84
2022/01/26 08:52:31;;;;;;;102.43;54.30;;;;;;;3.16;86.42;103125.84;5280106;28;20040;-84
2022/01/26 08:55:03;;;;;;;100.05;54.03;;;;;;;3.21;86.46;103127.00;5279323;28;20475;-82
2022/01/26 08:57:35;;;;;;;103.40;54.33;;;;;;;3.28;86.34;103129.88;5271498;28;20493;-83
2022/01/26 09:00:09;;;;;;;93.32;53.65;;;;;;;3.33;86.34;103130.16;5260903;28;20028;-80
2022/01/26 09:02:43;;;;;;;98.90;53.17;;;;;;;3.29;86.11;103137.06;5258792;28;20013;-84
2022/01/26 09:05:15;;;;;;;92.15;50.35;;;;;;;3.37;86.57;103131.47;5259109;28;20461;-82
2022/01/26 09:07:49;;;;;;;92.30;50.85;;;;;;;3.35;85.27;103128.09;5259103;28;20021;-83
2022/01/26 09:10:20;;;;;;;89.75;49.60;;;;;;;3.44;85.78;103126.13;5246324;28;20032;-80
2022/01/26 09:12:52;;;;;;;90.28;51.80;;;;;;;3.44;85.54;103128.84;5247448;28;20013;-83
2022/01/26 09:15:28;;;;;;;97.03;52.05;;;;;;;3.55;85.07;103127.53;5252307;28;20424;-84
2022/01/26 09:18:03;;;;;;;85.90;49.00;;;;;;;3.52;85.51;103130.66;5244806;28;20104;-83
2022/01/26 09:20:36;;;;;;;93.18;52.60;;;;;;;3.52;85.15;103126.03;5258891;28;20021;-83
2022/01/26 09:23:08;;;;;;;85.60;48.75;;;;;;;3.49;85.46;103140.13;5252245;28;20021;-83
2022/01/26 09:25:39;;;;;;;92.05;50.00;;;;;;;3.45;85.28;103125.94;5244428;28;20033;-82
2022/01/26 09:28:10;;;;;;;93.03;48.33;;;;;;;3.59;85.19;103135.22;5248523;28;20587;-82
2022/01/26 09:30:41;;;;;;;93.95;49.42;;;;;;;3.54;85.51;103137.69;5263999;28;20028;-83
2022/01/26 09:33:13;;;;;;;95.55;51.90;;;;;;;3.42;85.38;103145.50;5264276;28;20493;-75
2022/01/26 09:35:44;;;;;;;92.70;49.55;;;;;;;3.55;85.61;103146.75;5264617;28;20025;-74
2022/01/26 09:38:17;;;;;;;85.20;48.40;;;;;;;3.62;85.04;103148.56;5263796;28;20037;-82
2022/01/26 09:40:49;;;;;;;84.07;47.25;;;;;;;3.60;85.26;103147.03;5265182;28;20025;-78
2022/01/26 09:43:21;;;;;;;89.57;49.15;;;;;;;3.47;86.09;103133.97;5263971;28;20379;-79
2022/01/26 09:45:53;;;;;;;89.32;49.42;;;;;;;3.51;85.71;103129.81;5264642;28;20021;-79
2022/01/26 09:48:24;;;;;;;84.28;47.65;;;;;;;3.54;84.97;103120.38;5256943;28;20060;-82
2022/01/26 09:50:56;;;;;;;89.90;46.88;;;;;;;3.53;85.17;103115.91;5243154;28;20017;-82
2022/01/26 09:53:29;;;;;;;88.13;47.92;;;;;;;3.57;85.22;103118.09;5244564;28;20106;-74
2022/01/26 09:56:00;;;;;;;79.22;45.67;;;;;;;3.71;85.50;103102.69;5243934;28;20036;-74
2022/01/26 09:58:32;;;;;;;81.50;45.90;;;;;;;3.81;84.99;103106.00;5242485;28;20439;-74
2022/01/26 10:01:05;;;;;;;82.97;47.20;;;;;;;3.79;84.82;103105.34;5243356;28;20030;-74
2022/01/26 10:03:36;;;;;;;77.00;45.65;;;;;;;3.86;83.75;103106.28;5243525;28;20029;-74
2022/01/26 10:06:24;;;;;;;72.88;42.38;;;;;;;4.01;83.66;103103.50;5255938;28;20036;-73
2022/01/26 10:09:15;;;;;;;75.65;43.80;;;;;;;3.93;83.27;103109.09;5263927;28;20099;-73
2022/01/26 10:17:41;;;;;;;73.22;42.55;;;;;;;4.04;82.88;103108.66;5254095;28;20029;-75
2022/01/26 10:20:17;;;;;;;74.32;44.08;;;;;;;4.04;82.27;103105.03;5262595;28;20113;-74
2022/01/26 10:22:49;;;;;;;72.45;45.05;;;;;;;4.07;82.24;103112.91;5252473;28;20021;-74
2022/01/26 10:25:21;;;;;;;64.00;38.10;;;;;;;4.47;85.80;103105.97;5242063;28;20602;-73
2022/01/26 10:27:53;;;;;;;71.20;41.58;;;;;;;4.21;83.25;103101.03;5242617;28;20025;-74
2022/01/26 10:30:27;;;;;;;74.50;42.60;;;;;;;4.29;82.21;103091.81;5242819;28;20071;-79
2022/01/26 10:32:58;;;;;;;72.32;44.17;;;;;;;4.20;82.22;103091.09;5242379;28;20028;-72
2022/01/26 10:35:30;;;;;;;71.57;43.03;;;;;;;4.13;82.20;103095.66;5242457;28;20112;-74
2022/01/26 10:38:02;;;;;;;69.22;40.47;;;;;;;4.06;83.22;103097.44;5251249;28;20033;-74
2022/01/26 10:40:37;;;;;;;73.70;42.63;;;;;;;4.07;83.25;103104.66;5250748;28;20440;-75
2022/01/26 10:43:12;;;;;;;68.80;43.20;;;;;;;4.08;82.74;103131.91;5242717;28;20022;-74
2022/01/26 10:49:05;;;;;;;66.60;41.60;;;;;;;4.16;83.36;103163.91;5246992;28;20041;-72
2022/01/26 10:51:51;;;;;;;73.88;44.55;;;;;;;4.11;83.03;103163.63;5262596;28;20044;-68
2022/01/26 10:56:59;;;;;;;71.30;43.78;;;;;;;3.98;83.41;103150.56;5254181;28;20032;-74
2022/01/26 10:59:33;;;;;;;71.55;41.70;;;;;;;4.03;83.53;103142.63;5243575;28;20036;-73
2022/01/26 11:02:07;;;;;;;71.18;43.42;;;;;;;3.97;83.99;103142.53;5252415;28;20469;-73
2022/01/26 11:04:40;;;;;;;70.80;43.20;;;;;;;3.87;83.69;103138.19;5260172;28;20031;-73
2022/01/26 11:07:13;;;;;;;77.07;43.80;;;;;;;3.84;84.06;103133.06;5262313;28;20033;-74
2022/01/26 11:09:47;;;;;;;71.78;43.42;;;;;;;3.97;85.17;103137.06;5261664;28;20079;-76
2022/01/26 11:12:28;;;;;;;72.38;43.90;;;;;;;4.00;84.52;103139.41;5262751;28;20021;-76
2022/01/26 11:15:14;;;;;;;71.20;43.15;;;;;;;4.05;84.50;103134.19;5254117;28;20051;-76
2022/01/26 11:17:46;;;;;;;75.88;42.47;;;;;;;4.05;84.17;103121.31;5241623;28;20095;-75
2022/01/26 11:20:21;;;;;;;65.47;40.58;;;;;;;4.13;83.91;103123.13;5240355;28;20030;-75
2022/01/26 11:22:55;;;;;;;75.63;44.53;;;;;;;4.12;83.55;103126.91;5241185;28;20029;-76
2022/01/26 11:25:45;;;;;;;69.55;43.50;;;;;;;4.03;83.81;103117.06;5241603;28;20043;-75
2022/01/26 11:28:22;;;;;;;72.30;44.58;;;;;;;4.11;84.11;103120.53;5256475;28;20026;-76
2022/01/26 11:31:02;;;;;;;75.15;44.33;;;;;;;4.09;83.85;103121.78;5241244;28;20108;-73
2022/01/26 11:33:35;;;;;;;79.28;49.25;;;;;;;4.10;83.56;103118.00;5241533;28;20029;-73
2022/01/26 11:36:07;;;;;;;72.78;43.45;;;;;;;4.14;84.15;103114.69;5257248;28;20032;-75
2022/01/26 11:47:18;;;;;;;72.17;42.87;;;;;;;4.25;84.10;103088.63;5249670;28;20471;-73
2022/01/26 11:49:52;;;;;;;69.03;42.45;;;;;;;4.16;83.57;103089.75;5243265;28;20013;-72
2022/01/26 11:52:27;;;;;;;70.03;43.83;;;;;;;4.12;83.84;103086.56;5262491;28;20025;-74
2022/01/26 11:54:59;;;;;;;66.25;41.17;;;;;;;4.09;83.63;103084.22;5260736;28;20028;-74
2022/01/26 11:57:43;;;;;;;69.65;41.88;;;;;;;4.17;84.19;103086.00;5261202;28;20045;-75
2022/01/26 12:00:26;;;;;;;70.07;41.85;;;;;;;4.19;84.17;103083.88;5262008;28;20025;-75
2022/01/26 12:02:58;;;;;;;69.53;41.03;;;;;;;4.22;83.71;103079.91;5262086;28;20033;-76
2022/01/26 12:05:30;;;;;;;71.35;41.85;;;;;;;4.20;83.31;103077.38;5254321;28;20511;-75
2022/01/26 12:08:03;;;;;;;70.70;43.22;;;;;;;4.21;83.71;103076.31;5261871;28;20379;-74
2022/01/26 12:10:36;;;;;;;70.00;41.53;;;;;;;4.20;83.57;103084.75;5261189;28;20494;-79
2022/01/26 12:13:12;;;;;;;73.47;42.83;;;;;;;4.10;83.64;103071.31;5260774;28;20033;-74
2022/01/26 12:15:52;;;;;;;73.20;41.85;;;;;;;4.10;83.95;103063.09;5261900;28;20480;-78
2022/01/26 12:33:15;;;;;;;66.63;40.70;;;;;;;4.14;83.82;103075.38;5240626;28;20481;-77
2022/01/26 12:35:54;;;;;;;67.78;41.13;;;;;;;4.13;83.22;103080.00;5240950;28;20032;-77
2022/01/26 12:41:22;;;;;;;66.70;41.17;;;;;;;4.31;83.26;103085.09;5240156;28;20484;-75
2022/01/26 12:43:57;;;;;;;69.50;41.03;;;;;;;4.27;82.59;103074.69;5241445;28;20028;-76
2022/01/26 12:46:31;;;;;;;68.00;39.40;;;;;;;4.24;82.53;103070.41;5245390;28;20056;-74
2022/01/26 12:49:17;;;;;;;67.55;40.95;;;;;;;4.23;83.36;103076.13;5265632;28;20480;-76
2022/01/26 12:51:51;;;;;;;66.55;39.40;;;;;;;4.11;83.01;103079.34;5264885;28;20098;-76
2022/01/26 12:54:26;;;;;;;69.35;39.58;;;;;;;4.06;83.45;103078.22;5262666;28;20049;-76
2022/01/26 12:57:06;;;;;;;62.28;40.25;;;;;;;4.14;83.79;103075.38;5264227;28;20064;-75
2022/01/26 12:59:38;;;;;;;60.17;37.60;;;;;;;4.24;83.32;103075.91;5263259;28;20471;-75
2022/01/26 13:02:10;;;;;;;59.15;37.95;;;;;;;4.51;84.13;103073.47;5264522;28;20056;-77
2022/01/26 13:04:41;;;;;;;64.00;37.53;;;;;;;4.38;82.38;103076.09;5261511;28;20087;-78
2022/01/26 13:07:17;;;;;;;59.08;37.03;;;;;;;4.41;82.82;103070.19;5243635;28;20022;-77
2022/01/26 13:09:48;;;;;;;58.63;37.45;;;;;;;4.39;82.10;103067.63;5244063;28;20034;-77
2022/01/26 13:12:30;;;;;;;64.82;38.53;;;;;;;4.43;82.67;103059.88;5250732;28;20464;-77
2022/01/26 13:15:17;;;;;;;69.38;40.45;;;;;;;4.39;82.51;103053.06;5258032;28;20030;-77
2022/01/26 13:17:54;;;;;;;66.10;39.97;;;;;;;4.35;82.92;103045.22;5244133;28;20040;-75
2022/01/26 13:21:07;;;;;;;67.00;39.20;;;;;;;4.44;82.51;103036.84;5244809;28;20033;-77
2022/01/26 13:23:47;;;;;;;62.67;39.35;;;;;;;4.40;82.54;103049.25;5243469;28;20446;-77
2022/01/26 13:26:35;;;;;;;61.88;40.90;;;;;;;4.40;82.45;103046.50;5260259;28;20460;-75
2022/01/26 13:29:27;;;;;;;89.85;61.65;;;;;;;4.33;82.00;103047.28;5258790;28;20024;-76
2022/01/26 13:34:56;;;;;;;117.30;80.88;;;;;;;4.50;82.08;103036.03;5245847;28;20061;-75
2022/01/26 13:37:42;;;;;;;114.50;83.63;;;;;;;4.35;81.88;103027.88;5263560;28;20035;-74
2022/01/26 13:46:10;;;;;;;101.15;69.20;;;;;;;4.40;82.38;103038.25;5245282;28;20060;-76
2022/01/26 13:54:25;;;;;;;79.38;54.30;;;;;;;4.39;82.46;103022.84;5263982;28;20037;-75
2022/01/26 13:59:31;;;;;;;74.50;48.00;;;;;;;4.40;82.72;103019.03;5251752;28;20380;-75
2022/01/26 14:02:02;;;;;;;70.97;48.03;;;;;;;4.41;82.44;103009.75;5258075;28;20036;-74
2022/01/26 14:04:34;;;;;;;65.03;44.95;;;;;;;4.49;81.95;103012.38;5249041;28;20021;-74
2022/01/26 14:07:09;;;;;;;68.65;42.53;;;;;;;4.53;81.82;103019.19;5257634;28;20383;-74
2022/01/26 14:09:41;;;;;;;64.75;44.63;;;;;;;4.53;81.73;103024.69;5243366;28;20049;-74
2022/01/26 14:12:16;;;;;;;67.05;42.33;;;;;;;4.55;82.07;103022.56;5242203;28;20022;-74
2022/01/26 14:14:52;;;;;;;65.05;41.30;;;;;;;4.62;81.90;103009.75;5243607;28;20112;-77
2022/01/26 14:17:35;;;;;;;67.18;41.60;;;;;;;4.57;81.81;103013.06;5250933;28;20037;-78
2022/01/26 14:20:15;;;;;;;55.30;36.38;;;;;;;4.61;81.68;103010.81;5258166;28;20396;-72
2022/01/26 14:23:03;;;;;;;62.08;39.20;;;;;;;4.60;81.12;103014.59;5243264;28;20037;-72
2022/01/26 14:25:34;;;;;;;52.70;35.88;;;;;;;4.58;80.74;103005.72;5242736;28;20034;-72
2022/01/26 14:28:09;;;;;;;59.67;37.95;;;;;;;4.54;81.34;103007.97;5242450;28;20377;-71
2022/01/26 14:30:56;;;;;;;58.22;37.80;;;;;;;4.55;81.49;103003.31;5242441;28;20025;-73
2022/01/26 14:36:40;;;;;;;59.65;37.90;;;;;;;4.67;81.47;102996.25;5254448;28;20036;-73
2022/01/26 15:11:32;;;;;;;61.00;38.75;;;;;;;4.61;81.55;102999.81;5262824;28;20512;-78
2022/01/26 15:22:40;;;;;;;53.30;36.55;;;;;;;4.63;81.75;103016.09;5241041;28;20026;-77
2022/01/26 15:41:24;;;;;;;61.55;38.05;;;;;;;4.47;82.08;103009.81;5261951;28;20123;-75
2022/01/26 15:44:46;;;;;;;55.65;39.10;;;;;;;4.60;81.84;103003.59;5249679;28;20068;-76
2022/01/26 15:49:50;;;;;;;64.40;41.47;;;;;;;4.31;81.96;102999.94;5254025;28;20041;-77
2022/01/26 15:52:50;;;;;;;60.80;40.17;;;;;;;4.49;83.02;102996.72;5262724;28;20443;-77
2022/01/26 16:20:50;;;;;;;60.15;38.72;;;;;;;4.13;82.52;102980.31;5266035;28;20025;-79
2022/01/26 17:02:41;;;;;;;62.95;38.53;;;;;;;4.32;83.16;102987.91;5265562;28;20025;-78
2022/01/26 17:25:35;;;;;;;69.25;40.72;;;;;;;3.95;83.73;102990.88;5262851;28;20119;-77
